Últimos artigos:
Acender um LED com a tensão da rede eléctrica
Programação do Yaesu FT-60 para os EasySats
AO-91 (RadFxSat Fox-1B) está no Ar!
CT7AFR DIY CW-Keyer
Shutdown button for the Raspberry Pi
Simple C code to dump I2C device memory
Últimas fotos:
Últimos METARs:
LPAZ 172100Z 15018KT 9999 DZ SCT004 SCT012...
LPFR 172100Z 27012KT CAVOK 21/16 Q1015=
LPHR 172030Z 22008KT 180V240 9999 FEW010 F...
LPLA 172100Z /////KT 9999 SCT007 SCT014 22...
LPMA 172100Z 36004KT 320V030 9999 FEW016 2...
LPPD 172100Z 16009KT 4000 RA BKN005 BKN010...
LPPR 172100Z 00000KT 1500 BCFG BR BKN001 1...
LPPS 172100Z 31005KT 9999 FEW015 21/17 Q10...
LPPT 172100Z 31009KT CAVOK 19/15 Q1016=
Últimos QSOs:
2019/09/14-14:30 11m QRXNORTE (CARLOS)
2019/05/26-18:36 6m UT4XU (NIKOLAY)
2019/05/26-18:27 6m DM2HW (JOHANNES)
2019/05/26-18:22 6m CT3MD (JOSE)
2019/05/26-18:16 6m OK1VRV (RICHTR)
2019/05/26-18:07 6m SP9CVY (JERZY)
  UTC
Rpi-6 CPU Temp: 454642.0 °C (251812Z)
IN51oq 2119Z /////KT //// 26/15 Q1016=
56320